createdAt,value
2023-03-02T00:02:22.286Z,19.02
2023-03-02T00:05:29.930Z,20.50
2023-03-02T00:08:35.178Z,19.35
2023-03-02T00:11:39.994Z,18.27
2023-03-02T00:14:45.136Z,19.38
2023-03-02T00:17:49.724Z,18.75
2023-03-02T00:20:54.475Z,17.60
2023-03-02T00:23:59.223Z,21.70
2023-03-02T00:27:03.973Z,25.23
2023-03-02T00:30:10.400Z,26.08
2023-03-02T00:33:15.147Z,24.83
2023-03-02T00:36:22.345Z,27.35
2023-03-02T00:39:26.988Z,25.73
2023-03-02T00:42:31.378Z,24.65
2023-03-02T00:45:35.668Z,26.23
2023-03-02T00:48:40.852Z,25.70
2023-03-02T00:51:45.636Z,24.25
2023-03-02T00:54:50.097Z,24.88
2023-03-02T00:57:55.528Z,26.98
2023-03-02T01:01:13.850Z,27.83
2023-03-02T01:04:29.778Z,25.25
2023-03-02T01:07:34.482Z,26.63
2023-03-02T01:13:36.268Z,26.40
2023-03-02T01:16:41.450Z,24.48
2023-03-02T01:19:45.957Z,26.05
2023-03-02T01:22:50.896Z,25.90
2023-03-02T01:25:55.647Z,28.77
2023-03-02T01:29:00.550Z,26.38
2023-03-02T01:32:05.670Z,23.30
2023-03-02T01:35:11.014Z,25.15
2023-03-02T01:38:15.493Z,23.63
2023-03-02T01:41:20.161Z,23.63
2023-03-02T01:44:40.668Z,23.40
2023-03-02T01:47:45.077Z,27.75
2023-03-02T01:50:55.275Z,26.67
2023-03-02T01:54:09.934Z,25.60
2023-03-02T01:57:14.700Z,27.20
2023-03-02T02:00:28.519Z,25.70
2023-03-02T02:03:34.153Z,25.20
2023-03-02T02:06:42.850Z,24.83
2023-03-02T02:09:51.629Z,24.30
2023-03-02T02:12:56.417Z,24.98
2023-03-02T02:16:01.264Z,21.58
2023-03-02T02:19:23.564Z,25.65
2023-03-02T02:22:55.873Z,22.00
2023-03-02T02:26:18.120Z,26.33
2023-03-02T02:29:33.112Z,25.65
2023-03-02T02:32:40.337Z,23.20
2023-03-02T02:35:47.841Z,23.85
2023-03-02T02:38:55.795Z,22.77
2023-03-02T02:42:06.152Z,23.50
2023-03-02T02:45:31.328Z,26.08
2023-03-02T02:48:36.253Z,25.85
2023-03-02T02:51:41.062Z,24.08
2023-03-02T02:54:50.104Z,24.85
2023-03-02T02:57:59.438Z,21.38
2023-03-02T03:01:04.874Z,22.40
2023-03-02T03:04:18.141Z,25.67
2023-03-02T03:07:25.388Z,22.35
2023-03-02T03:10:35.919Z,22.83
2023-03-02T03:13:42.692Z,23.13
2023-03-02T03:16:49.956Z,25.10
2023-03-02T03:19:54.370Z,26.40
2023-03-02T03:23:00.789Z,22.20
2023-03-02T03:26:07.754Z,24.23
2023-03-02T03:29:15.007Z,21.33
2023-03-02T03:32:21.351Z,22.40
2023-03-02T03:35:28.997Z,20.13
2023-03-02T03:38:33.665Z,22.60
2023-03-02T03:41:38.846Z,24.13
2023-03-02T03:44:44.485Z,26.17
2023-03-02T03:47:49.256Z,25.17
2023-03-02T03:50:54.295Z,24.13
2023-03-02T03:54:01.598Z,23.48
2023-03-02T03:57:12.500Z,25.02
2023-03-02T04:00:18.523Z,23.95
2023-03-02T04:03:39.140Z,24.15
2023-03-02T04:06:44.573Z,24.15
2023-03-02T04:09:49.647Z,26.25
2023-03-02T04:12:55.062Z,27.13
2023-03-02T04:15:59.348Z,27.95
2023-03-02T04:19:09.374Z,25.35
2023-03-02T04:22:16.866Z,25.30
2023-03-02T04:25:26.367Z,24.10
2023-03-02T04:28:35.551Z,24.13
2023-03-02T04:31:40.736Z,23.73
2023-03-02T04:34:45.282Z,25.02
2023-03-02T04:37:49.603Z,23.25
2023-03-02T04:41:03.894Z,20.05
2023-03-02T04:44:10.518Z,24.58
2023-03-02T04:47:15.650Z,24.63
2023-03-02T04:50:20.675Z,22.27
2023-03-02T04:53:25.114Z,22.35
2023-03-02T04:56:30.872Z,26.05
2023-03-02T04:59:35.956Z,23.13
2023-03-02T05:02:42.318Z,24.95
2023-03-02T05:05:47.025Z,21.17
2023-03-02T05:08:53.361Z,21.73
2023-03-02T05:12:00.655Z,23.23
2023-03-02T05:15:06.054Z,24.52
2023-03-02T05:18:12.776Z,22.13
2023-03-02T05:21:18.936Z,23.55
2023-03-02T05:24:23.576Z,23.13
2023-03-02T05:27:28.318Z,23.30
2023-03-02T05:30:37.564Z,22.67
2023-03-02T05:33:42.607Z,24.60
2023-03-02T05:36:47.253Z,24.25
2023-03-02T05:39:51.854Z,25.00
2023-03-02T05:42:56.681Z,23.52
2023-03-02T05:46:01.392Z,24.30
2023-03-02T05:49:06.205Z,25.23
2023-03-02T05:52:11.032Z,24.40
2023-03-02T05:55:17.222Z,25.38
2023-03-02T05:58:22.053Z,26.50
2023-03-02T06:01:26.535Z,27.25
2023-03-02T06:04:31.336Z,24.83
2023-03-02T06:07:36.365Z,23.73
2023-03-02T06:10:41.196Z,22.95
2023-03-02T06:13:46.176Z,23.42
2023-03-02T06:16:50.874Z,22.73
2023-03-02T06:19:55.304Z,23.92
2023-03-02T06:23:00.129Z,25.05
2023-03-02T06:26:12.548Z,23.25
2023-03-02T06:29:16.824Z,23.60
2023-03-02T06:32:21.727Z,24.25
2023-03-02T06:35:26.639Z,21.42
2023-03-02T06:38:31.333Z,25.85
2023-03-02T06:41:35.583Z,23.27
2023-03-02T06:44:39.832Z,22.77
2023-03-02T06:47:44.330Z,23.20
2023-03-02T06:50:48.980Z,25.80
2023-03-02T06:53:53.282Z,24.92
2023-03-02T06:56:57.844Z,22.75
2023-03-02T07:00:11.533Z,23.40
2023-03-02T07:03:17.386Z,21.95
2023-03-02T07:06:22.071Z,20.40
2023-03-02T07:09:26.891Z,22.70
2023-03-02T07:12:31.619Z,24.10
2023-03-02T07:15:39.305Z,22.58
2023-03-02T07:18:44.074Z,23.98
2023-03-02T07:21:49.100Z,23.50
2023-03-02T07:24:54.101Z,23.80
2023-03-02T07:27:59.389Z,23.10
2023-03-02T07:31:04.097Z,22.98
2023-03-02T07:34:08.754Z,24.85
2023-03-02T07:37:13.655Z,22.00
2023-03-02T07:40:18.791Z,22.30
2023-03-02T07:43:28.682Z,23.50
2023-03-02T07:46:33.268Z,19.83
2023-03-02T07:49:38.210Z,22.35
2023-03-02T07:52:43.098Z,19.98
2023-03-02T07:55:47.840Z,18.65
2023-03-02T07:58:52.640Z,21.00
2023-03-02T08:01:58.140Z,18.65
2023-03-02T08:05:02.831Z,18.77
2023-03-02T08:08:07.685Z,17.10
2023-03-02T08:11:16.861Z,16.00
2023-03-02T08:14:21.641Z,15.18
2023-03-02T08:17:26.400Z,17.23
2023-03-02T08:20:30.961Z,18.20
2023-03-02T08:23:35.695Z,16.90
2023-03-02T08:26:40.523Z,16.90
2023-03-02T08:29:45.080Z,17.90
2023-03-02T08:32:49.982Z,17.13
2023-03-02T08:36:00.309Z,15.98
2023-03-02T08:39:04.873Z,14.82
2023-03-02T08:42:09.575Z,16.30
2023-03-02T08:45:14.444Z,16.48
2023-03-02T08:48:20.717Z,16.42
2023-03-02T08:51:26.571Z,14.82
2023-03-02T08:54:34.322Z,16.98
2023-03-02T08:57:41.634Z,16.25
2023-03-02T09:00:46.729Z,15.85
2023-03-02T09:03:52.597Z,15.10
2023-03-02T09:06:57.208Z,15.40
2023-03-02T09:10:02.114Z,13.98
2023-03-02T09:13:08.582Z,15.73
2023-03-02T09:16:14.971Z,15.88
2023-03-02T09:19:20.286Z,15.55
2023-03-02T09:22:25.236Z,17.05
2023-03-02T09:25:30.220Z,13.23
2023-03-02T09:28:36.225Z,15.27
2023-03-02T09:31:41.094Z,14.73
2023-03-02T09:34:45.943Z,14.77
2023-03-02T09:37:50.832Z,15.88
2023-03-02T09:41:21.352Z,13.93
2023-03-02T09:44:38.739Z,14.93
2023-03-02T09:48:08.894Z,14.45
2023-03-02T09:51:33.152Z,14.65
2023-03-02T09:54:40.503Z,13.70
2023-03-02T09:57:46.962Z,13.88
2023-03-02T10:00:52.485Z,13.95
2023-03-02T10:04:21.388Z,13.27
2023-03-02T10:07:34.152Z,12.50
2023-03-02T10:11:23.702Z,12.82
2023-03-02T10:14:39.219Z,14.48
2023-03-02T10:18:09.351Z,11.75
2023-03-02T10:21:50.862Z,12.85
2023-03-02T10:25:20.790Z,12.63
2023-03-02T10:28:34.261Z,11.85
2023-03-02T10:31:43.374Z,14.07
2023-03-02T10:34:50.447Z,11.75
2023-03-02T10:38:20.892Z,12.90
2023-03-02T10:41:44.506Z,12.73
2023-03-02T10:44:56.067Z,12.27
2023-03-02T10:48:06.042Z,12.95
2023-03-02T10:51:27.388Z,10.57
2023-03-02T10:54:34.593Z,10.70
2023-03-02T10:57:45.324Z,11.32
2023-03-02T11:01:18.937Z,11.93
2023-03-02T11:04:23.730Z,13.95
2023-03-02T11:07:29.628Z,12.32
2023-03-02T11:11:01.228Z,11.82
2023-03-02T11:14:16.621Z,11.32
2023-03-02T11:17:42.081Z,10.65
2023-03-02T11:20:50.746Z,10.63
2023-03-02T11:24:11.848Z,11.00
2023-03-02T11:27:27.870Z,13.52
2023-03-02T11:30:36.850Z,11.77
2023-03-02T11:34:17.375Z,10.73
2023-03-02T11:37:25.914Z,10.90
2023-03-02T11:40:33.393Z,11.18
2023-03-02T11:43:38.043Z,10.05
2023-03-02T11:46:48.829Z,9.90
2023-03-02T11:50:00.459Z,10.15
2023-03-02T11:53:13.749Z,10.18
2023-03-02T11:56:18.259Z,10.85
2023-03-02T11:59:26.530Z,10.77
2023-03-02T12:02:32.225Z,10.15
2023-03-02T12:05:40.031Z,10.75
2023-03-02T12:08:48.501Z,9.80
2023-03-02T12:12:10.783Z,11.05
2023-03-02T12:15:47.662Z,12.02
2023-03-02T12:18:53.310Z,10.18
2023-03-02T12:22:10.475Z,9.73
2023-03-02T12:25:21.194Z,8.88
2023-03-02T12:28:44.278Z,10.80
2023-03-02T12:31:56.663Z,12.80
2023-03-02T12:35:07.166Z,11.43
2023-03-02T12:38:31.278Z,12.90
2023-03-02T12:42:21.177Z,10.75
2023-03-02T12:46:08.284Z,11.55
2023-03-02T12:49:27.834Z,11.07
2023-03-02T12:52:35.995Z,11.68
2023-03-02T12:55:41.409Z,11.68
2023-03-02T12:58:50.932Z,12.13
2023-03-02T13:02:21.339Z,11.60
2023-03-02T13:05:32.227Z,11.15
2023-03-02T13:08:37.460Z,11.15
2023-03-02T13:11:44.388Z,11.43
2023-03-02T13:14:58.564Z,9.80
2023-03-02T13:18:03.422Z,9.57
2023-03-02T13:21:14.892Z,10.63
2023-03-02T13:24:45.450Z,11.35
2023-03-02T13:28:00.827Z,10.57
2023-03-02T13:31:17.375Z,9.57
2023-03-02T13:34:26.778Z,9.35
2023-03-02T13:37:43.926Z,9.05
2023-03-02T13:40:55.069Z,8.30
2023-03-02T13:44:19.933Z,9.65
2023-03-02T13:47:25.287Z,8.48
2023-03-02T13:50:32.565Z,10.23
2023-03-02T13:53:38.155Z,9.52
2023-03-02T13:56:44.011Z,10.05
2023-03-02T13:59:49.208Z,8.85
2023-03-02T14:02:53.722Z,9.93
2023-03-02T14:06:00.468Z,9.35
2023-03-02T14:09:05.831Z,9.50
2023-03-02T14:12:31.689Z,9.80
2023-03-02T14:15:42.954Z,9.77
2023-03-02T14:18:49.781Z,10.30
2023-03-02T14:21:54.665Z,9.38
2023-03-02T14:24:59.466Z,10.45
2023-03-02T14:28:04.692Z,10.60
2023-03-02T14:31:10.700Z,10.15
2023-03-02T14:34:16.968Z,10.52
2023-03-02T14:37:27.670Z,10.52
2023-03-02T14:40:33.638Z,9.75
2023-03-02T14:43:38.325Z,10.30
2023-03-02T14:46:43.371Z,9.63
2023-03-02T14:49:49.365Z,8.77
2023-03-02T14:52:57.752Z,9.35
2023-03-02T14:56:02.603Z,9.30
2023-03-02T14:59:14.279Z,8.57
2023-03-02T15:02:25.785Z,9.73
2023-03-02T15:05:32.060Z,10.20
2023-03-02T15:08:37.446Z,9.60
2023-03-02T15:11:41.808Z,8.43
2023-03-02T15:14:46.805Z,9.23
2023-03-02T15:17:51.877Z,9.43
2023-03-02T15:20:56.480Z,9.55
2023-03-02T15:24:01.590Z,9.75
2023-03-02T15:27:06.292Z,9.32
2023-03-02T15:30:12.328Z,9.57
2023-03-02T15:33:17.008Z,10.68
2023-03-02T15:36:23.368Z,9.80
2023-03-02T15:39:28.095Z,9.70
2023-03-02T15:42:33.013Z,10.35
2023-03-02T15:45:37.977Z,9.02
2023-03-02T15:48:42.519Z,9.88
2023-03-02T15:51:47.154Z,7.93
2023-03-02T15:54:52.074Z,8.13
2023-03-02T15:58:00.068Z,8.15
2023-03-02T16:01:09.635Z,8.93
2023-03-02T16:04:14.599Z,8.77
2023-03-02T16:07:19.681Z,9.50
2023-03-02T16:10:26.795Z,9.73
2023-03-02T16:13:31.721Z,9.63
2023-03-02T16:16:36.829Z,10.90
2023-03-02T16:19:41.625Z,9.95
2023-03-02T16:22:46.281Z,9.07
2023-03-02T16:25:52.401Z,9.13
2023-03-02T16:28:56.904Z,12.40
2023-03-02T16:32:02.198Z,10.90
2023-03-02T16:35:09.404Z,10.40
2023-03-02T16:38:14.330Z,8.77
2023-03-02T16:41:22.689Z,10.43
2023-03-02T16:44:28.876Z,11.13
2023-03-02T16:47:33.153Z,10.15
2023-03-02T16:50:37.982Z,10.30
2023-03-02T16:53:43.180Z,10.30
2023-03-02T16:56:47.816Z,11.20
2023-03-02T16:59:52.688Z,11.35
2023-03-02T17:02:57.554Z,9.55
2023-03-02T17:06:02.682Z,10.18
2023-03-02T17:09:07.321Z,11.13
2023-03-02T17:12:12.178Z,12.30
2023-03-02T17:15:17.232Z,13.27
2023-03-02T17:18:22.354Z,12.13
2023-03-02T17:21:27.046Z,12.13
2023-03-02T17:24:35.460Z,9.95
2023-03-02T17:27:40.339Z,10.60
2023-03-02T17:30:45.655Z,12.45
2023-03-02T17:33:50.447Z,12.02
2023-03-02T17:36:55.494Z,13.80
2023-03-02T17:40:00.752Z,14.00
2023-03-02T17:43:05.546Z,15.63
2023-03-02T17:46:21.345Z,20.30
2023-03-02T17:49:26.094Z,16.83
2023-03-02T17:52:30.818Z,14.70
2023-03-02T17:55:35.450Z,15.40
2023-03-02T17:58:45.163Z,16.25
2023-03-02T18:01:50.310Z,15.68
2023-03-02T18:04:55.125Z,14.85
2023-03-02T18:07:59.402Z,16.25
2023-03-02T18:11:05.912Z,16.17
2023-03-02T18:14:20.457Z,14.27
2023-03-02T18:17:25.504Z,14.82
2023-03-02T18:20:30.473Z,16.92
2023-03-02T18:23:34.956Z,17.00
2023-03-02T18:26:39.505Z,16.55
2023-03-02T18:29:44.563Z,16.50
2023-03-02T18:32:49.851Z,16.75
2023-03-02T18:35:57.402Z,16.05
2023-03-02T18:39:03.350Z,15.68
2023-03-02T18:42:08.268Z,15.55
2023-03-02T18:45:25.462Z,14.40
2023-03-02T18:48:30.656Z,13.30
2023-03-02T18:51:35.162Z,15.15
2023-03-02T18:54:40.177Z,14.48
2023-03-02T18:57:45.290Z,13.57
2023-03-02T19:00:49.853Z,12.93
2023-03-02T19:03:56.932Z,13.38
2023-03-02T19:07:02.959Z,15.32
2023-03-02T19:10:08.436Z,13.95
2023-03-02T19:13:13.230Z,13.48
2023-03-02T19:16:18.686Z,14.32
2023-03-02T19:19:23.636Z,13.43
2023-03-02T19:22:28.343Z,12.88
2023-03-02T19:25:33.056Z,12.55
2023-03-02T19:28:39.955Z,12.48
2023-03-02T19:31:44.560Z,12.18
2023-03-02T19:34:49.157Z,12.85
2023-03-02T19:37:54.072Z,11.27
2023-03-02T19:41:01.546Z,12.20
2023-03-02T19:44:07.349Z,12.18
2023-03-02T19:47:11.900Z,10.18
2023-03-02T19:50:18.755Z,11.85
2023-03-02T19:53:23.344Z,12.63
2023-03-02T19:56:33.120Z,11.70
2023-03-02T19:59:39.648Z,12.48
2023-03-02T20:02:45.162Z,12.38
2023-03-02T20:05:50.395Z,13.25
2023-03-02T20:08:57.778Z,12.60
2023-03-02T20:12:02.640Z,11.73
2023-03-02T20:15:07.743Z,12.60
2023-03-02T20:18:19.420Z,13.38
2023-03-02T20:21:27.226Z,13.00
2023-03-02T20:24:31.976Z,13.55
2023-03-02T20:27:36.486Z,13.07
2023-03-02T20:31:06.196Z,10.80
2023-03-02T20:34:15.955Z,12.98
2023-03-02T20:37:22.555Z,13.60
2023-03-02T20:40:28.127Z,14.52
2023-03-02T20:43:33.476Z,13.20
2023-03-02T20:46:44.676Z,14.55
2023-03-02T20:49:50.127Z,13.55
2023-03-02T20:52:54.771Z,13.43
2023-03-02T20:55:59.641Z,12.98
2023-03-02T20:59:04.487Z,11.00
2023-03-02T21:02:09.007Z,11.98
2023-03-02T21:05:14.553Z,11.48
2023-03-02T21:08:18.971Z,12.05
2023-03-02T21:11:23.944Z,11.43
2023-03-02T21:14:30.346Z,11.50
2023-03-02T21:17:35.586Z,12.75
2023-03-02T21:20:40.676Z,11.68
2023-03-02T21:23:47.035Z,11.95
2023-03-02T21:26:53.580Z,12.38
2023-03-02T21:29:58.268Z,11.93
2023-03-02T21:33:03.678Z,11.85
2023-03-02T21:36:16.548Z,12.73
2023-03-02T21:39:23.697Z,11.77
2023-03-02T21:42:28.313Z,11.50
2023-03-02T21:45:34.954Z,11.27
2023-03-02T21:48:40.162Z,12.73
2023-03-02T21:51:47.067Z,12.18
2023-03-02T21:54:53.893Z,12.85
2023-03-02T21:57:59.394Z,11.93
2023-03-02T22:01:04.236Z,10.45
2023-03-02T22:04:08.646Z,13.32
2023-03-02T22:07:12.958Z,11.73
2023-03-02T22:10:43.894Z,11.32
2023-03-02T22:13:50.823Z,14.10
2023-03-02T22:16:55.412Z,13.48
2023-03-02T22:20:00.015Z,14.02
2023-03-02T22:23:14.324Z,13.57
2023-03-02T22:32:46.238Z,13.73
2023-03-02T22:35:54.206Z,14.60
2023-03-02T22:39:05.853Z,15.30
2023-03-02T22:42:20.272Z,14.50
2023-03-02T22:45:25.187Z,15.10
2023-03-02T22:48:29.915Z,15.13
2023-03-02T22:51:34.686Z,16.05
2023-03-02T22:54:39.437Z,14.18
2023-03-02T22:57:44.210Z,15.43
2023-03-02T23:00:49.301Z,15.50
2023-03-02T23:04:07.824Z,14.55
2023-03-02T23:07:21.645Z,13.23
2023-03-02T23:17:02.005Z,12.55
2023-03-02T23:20:12.351Z,13.32
2023-03-02T23:23:17.866Z,18.77
2023-03-02T23:26:22.623Z,18.15
2023-03-02T23:29:26.901Z,18.58
2023-03-02T23:32:31.553Z,17.30
2023-03-02T23:35:36.257Z,15.32
2023-03-02T23:38:41.706Z,15.63
2023-03-02T23:41:46.603Z,18.08
2023-03-02T23:44:51.670Z,17.48
2023-03-02T23:47:57.617Z,17.33
2023-03-02T23:51:02.241Z,14.70
2023-03-02T23:54:07.725Z,12.90
2023-03-02T23:57:12.591Z,16.08
